createdAt,value
2022-08-05T00:01:50.707Z,44.04
2022-08-05T00:04:21.498Z,44.97
2022-08-05T00:06:52.064Z,43.86
2022-08-05T00:09:21.223Z,44.97
2022-08-05T00:11:55.618Z,44.97
2022-08-05T00:14:22.103Z,45.24
2022-08-05T00:16:54.027Z,43.78
2022-08-05T00:19:24.956Z,44.71
2022-08-05T00:21:54.933Z,45.21
2022-08-05T00:24:30.633Z,44.96
2022-08-05T00:26:55.138Z,44.45
2022-08-05T00:29:25.299Z,45.37
2022-08-05T00:32:12.301Z,45.33
2022-08-05T00:34:53.478Z,44.24
2022-08-05T00:37:10.880Z,44.24
2022-08-05T00:39:28.883Z,44.56
2022-08-05T00:41:59.638Z,44.34
2022-08-05T00:44:30.608Z,44.33
2022-08-05T00:47:02.103Z,44.46
2022-08-05T00:49:32.715Z,45.09
2022-08-05T00:52:01.627Z,45.09
2022-08-05T00:54:30.993Z,45.09
2022-08-05T00:57:00.158Z,44.81
2022-08-05T00:59:34.613Z,45.17
2022-08-05T01:02:00.153Z,45.09
2022-08-05T01:04:30.226Z,44.83
2022-08-05T01:06:59.601Z,45.08
2022-08-05T01:09:30.477Z,44.87
2022-08-05T01:12:04.885Z,44.87
2022-08-05T01:14:38.978Z,45.08
2022-08-05T01:17:44.217Z,44.69
2022-08-05T01:20:30.722Z,43.31
2022-08-05T01:23:15.113Z,43.31
2022-08-05T01:26:00.859Z,43.59
2022-08-05T01:28:49.440Z,43.52
2022-08-05T01:31:45.009Z,43.52
2022-08-05T01:34:16.176Z,43.30
2022-08-05T01:36:52.845Z,43.21
2022-08-05T01:39:46.750Z,42.22
2022-08-05T01:41:56.667Z,42.02
2022-08-05T01:44:34.387Z,41.90
2022-08-05T01:47:00.014Z,41.60
2022-08-05T01:50:00.330Z,41.60
2022-08-05T01:52:17.444Z,41.53
2022-08-05T01:54:46.137Z,41.53
2022-08-05T01:58:18.881Z,41.70
2022-08-05T01:59:47.253Z,41.70
2022-08-05T02:02:15.914Z,42.56
2022-08-05T02:04:49.538Z,41.92
2022-08-05T02:07:22.161Z,42.97
2022-08-05T02:09:50.099Z,42.49
2022-08-05T02:12:40.635Z,42.89
2022-08-05T02:15:12.720Z,42.57
2022-08-05T02:18:28.478Z,42.52
2022-08-05T02:20:20.483Z,42.52
2022-08-05T02:22:51.829Z,43.25
2022-08-05T02:25:32.987Z,41.58
2022-08-05T02:28:01.588Z,41.58
2022-08-05T02:30:51.828Z,42.52
2022-08-05T02:33:24.491Z,43.21
2022-08-05T02:35:59.125Z,43.25
2022-08-05T02:38:35.502Z,42.92
2022-08-05T02:41:14.745Z,43.53
2022-08-05T02:43:34.824Z,43.53
2022-08-05T02:46:06.784Z,43.22
2022-08-05T02:48:38.697Z,43.22
2022-08-05T02:51:10.681Z,44.11
2022-08-05T02:53:43.027Z,45.02
2022-08-05T02:56:15.933Z,45.02
2022-08-05T02:58:51.585Z,45.09
2022-08-05T03:01:20.121Z,45.37
2022-08-05T03:04:08.844Z,45.37
2022-08-05T03:06:56.096Z,44.62
2022-08-05T03:08:55.110Z,44.62
2022-08-05T03:11:56.296Z,45.05
2022-08-05T03:14:03.104Z,44.82
2022-08-05T03:16:29.268Z,44.82
2022-08-05T03:19:01.124Z,44.11
2022-08-05T03:21:33.198Z,44.32
2022-08-05T03:24:03.513Z,43.87
2022-08-05T03:26:32.945Z,45.23
2022-08-05T03:29:02.448Z,45.23
2022-08-05T03:31:56.107Z,44.85
2022-08-05T03:34:06.682Z,44.85
2022-08-05T03:36:37.421Z,44.55
2022-08-05T03:39:13.146Z,44.55
2022-08-05T03:41:45.384Z,43.97
2022-08-05T03:44:12.783Z,45.37
2022-08-05T03:46:43.497Z,45.59
2022-08-05T03:49:14.969Z,45.91
2022-08-05T03:52:36.558Z,45.91
2022-08-05T03:55:49.743Z,45.92
2022-08-05T03:57:16.736Z,46.74
2022-08-05T03:59:54.540Z,46.77
2022-08-05T04:02:38.796Z,46.77
2022-08-05T04:04:51.952Z,46.50
2022-08-05T04:07:25.175Z,49.67
2022-08-05T04:09:55.721Z,49.26
2022-08-05T04:12:25.041Z,48.31
2022-08-05T04:14:57.741Z,47.42
2022-08-05T04:17:36.409Z,48.74
2022-08-05T04:19:58.719Z,48.83
2022-08-05T04:22:27.874Z,49.97
2022-08-05T04:24:57.071Z,49.97
2022-08-05T04:27:41.721Z,48.58
2022-08-05T04:29:58.739Z,49.75
2022-08-05T04:32:31.947Z,50.92
2022-08-05T04:35:00.349Z,49.74
2022-08-05T04:38:01.627Z,49.74
2022-08-05T04:40:00.582Z,49.51
2022-08-05T04:42:31.334Z,51.68
2022-08-05T04:45:01.059Z,52.46
2022-08-05T04:47:31.217Z,51.56
2022-08-05T04:50:11.127Z,52.85
2022-08-05T04:52:34.188Z,52.85
2022-08-05T04:55:13.789Z,52.66
2022-08-05T04:57:37.291Z,53.32
2022-08-05T05:00:09.189Z,52.76
2022-08-05T05:02:41.827Z,54.70
2022-08-05T05:05:26.388Z,51.98
2022-08-05T05:07:40.328Z,51.98
2022-08-05T05:10:11.097Z,52.43
2022-08-05T05:12:42.179Z,51.62
2022-08-05T05:15:12.139Z,51.62
2022-08-05T05:17:55.787Z,51.32
2022-08-05T05:20:18.151Z,50.98
2022-08-05T05:22:49.190Z,50.98
2022-08-05T05:25:18.386Z,53.97
2022-08-05T05:27:48.594Z,53.19
2022-08-05T05:30:29.226Z,53.13
2022-08-05T05:32:49.758Z,53.02
2022-08-05T05:35:19.915Z,53.02
2022-08-05T05:38:01.429Z,50.75
2022-08-05T05:40:30.248Z,50.29
2022-08-05T05:43:02.104Z,50.29
2022-08-05T05:45:32.093Z,49.18
2022-08-05T05:48:06.593Z,49.11
2022-08-05T05:50:32.937Z,49.11
2022-08-05T05:53:03.314Z,49.95
2022-08-05T05:55:51.851Z,51.08
2022-08-05T05:58:05.580Z,51.08
2022-08-05T06:00:34.711Z,51.74
2022-08-05T06:03:40.672Z,51.02
2022-08-05T06:05:35.950Z,49.14
2022-08-05T06:08:05.347Z,49.68
2022-08-05T06:10:37.368Z,50.64
2022-08-05T06:13:05.781Z,50.64
2022-08-05T06:16:27.281Z,49.35
2022-08-05T06:18:05.727Z,49.65
2022-08-05T06:20:35.233Z,49.65
2022-08-05T06:23:04.736Z,48.12
2022-08-05T06:26:13.744Z,47.77
2022-08-05T06:28:12.440Z,46.17
2022-08-05T06:30:35.603Z,46.17
2022-08-05T06:33:04.705Z,46.95
2022-08-05T06:36:05.818Z,46.95
2022-08-05T06:38:11.132Z,48.49
2022-08-05T06:40:37.212Z,48.68
2022-08-05T06:43:08.232Z,48.68
2022-08-05T06:46:03.057Z,49.71
2022-08-05T06:48:47.161Z,49.58
2022-08-05T06:50:40.665Z,51.39
2022-08-05T06:53:19.666Z,51.39
2022-08-05T06:55:42.022Z,50.26
2022-08-05T06:58:30.097Z,53.33
2022-08-05T07:00:42.504Z,53.33
2022-08-05T07:03:13.552Z,49.56
2022-08-05T07:05:44.575Z,49.56
2022-08-05T07:08:15.387Z,49.51
2022-08-05T07:10:52.953Z,47.61
2022-08-05T07:13:59.153Z,49.91
2022-08-05T07:18:08.196Z,48.29
2022-08-05T07:18:52.453Z,48.60
2022-08-05T07:21:25.903Z,48.65
2022-08-05T07:23:52.967Z,49.59
2022-08-05T07:26:25.006Z,50.83
2022-08-05T07:28:52.926Z,48.90
2022-08-05T07:31:53.923Z,47.91
2022-08-05T07:33:53.460Z,48.35
2022-08-05T07:36:22.543Z,51.19
2022-08-05T07:38:54.700Z,50.98
2022-08-05T07:42:13.614Z,53.06
2022-08-05T07:43:57.073Z,51.72
2022-08-05T07:46:31.289Z,51.72
2022-08-05T07:49:05.896Z,51.30
2022-08-05T07:51:41.110Z,51.19
2022-08-05T07:54:08.446Z,51.19
2022-08-05T07:57:01.477Z,49.72
2022-08-05T07:59:11.038Z,49.38
2022-08-05T08:01:51.681Z,49.07
2022-08-05T08:04:12.192Z,51.48
2022-08-05T08:06:41.513Z,51.58
2022-08-05T08:09:12.247Z,51.58
2022-08-05T08:11:48.288Z,52.85
2022-08-05T08:14:12.390Z,52.04
2022-08-05T08:16:51.131Z,52.11
2022-08-05T08:20:10.116Z,53.36
2022-08-05T08:21:44.975Z,50.43
2022-08-05T08:24:17.170Z,50.77
2022-08-05T08:26:49.545Z,50.77
2022-08-05T08:29:29.366Z,53.55
2022-08-05T08:31:50.068Z,53.55
2022-08-05T08:34:30.886Z,51.34
2022-08-05T08:36:55.813Z,52.63
2022-08-05T08:39:23.766Z,52.63
2022-08-05T08:42:00.137Z,53.07
2022-08-05T08:45:24.013Z,54.79
2022-08-05T08:46:59.997Z,51.83
2022-08-05T08:50:12.880Z,50.29
2022-08-05T08:52:13.248Z,50.29
2022-08-05T08:54:36.950Z,49.68
2022-08-05T08:57:11.241Z,49.63
2022-08-05T08:59:47.343Z,48.88
2022-08-05T09:02:16.713Z,48.88
2022-08-05T09:04:57.892Z,50.45
2022-08-05T09:07:28.441Z,50.45
2022-08-05T09:09:50.553Z,51.36
2022-08-05T09:12:20.676Z,51.95
2022-08-05T09:14:58.318Z,51.95
2022-08-05T09:17:41.327Z,49.26
2022-08-05T09:20:01.777Z,51.42
2022-08-05T09:22:31.806Z,51.42
2022-08-05T09:25:01.637Z,51.34
2022-08-05T09:28:05.719Z,51.34
2022-08-05T09:30:16.289Z,50.89
2022-08-05T09:32:46.461Z,51.28
2022-08-05T09:35:26.465Z,52.10
2022-08-05T09:38:17.362Z,50.80
2022-08-05T09:40:52.731Z,50.45
2022-08-05T09:43:14.929Z,50.97
2022-08-05T09:46:06.253Z,50.97
2022-08-05T09:48:34.447Z,50.12
2022-08-05T09:51:15.150Z,51.40
2022-08-05T09:54:00.401Z,51.40
2022-08-05T09:56:32.617Z,51.44
2022-08-05T09:59:05.005Z,52.51
2022-08-05T10:01:41.288Z,53.46
2022-08-05T10:04:16.192Z,53.66
2022-08-05T10:06:59.270Z,53.31
2022-08-05T10:09:29.829Z,53.31
2022-08-05T10:12:30.374Z,52.50
2022-08-05T10:14:41.966Z,50.53
2022-08-05T10:17:37.177Z,50.53
2022-08-05T10:20:04.533Z,51.75
2022-08-05T10:22:29.729Z,51.75
2022-08-05T10:24:49.338Z,53.41
2022-08-05T10:27:20.362Z,52.10
2022-08-05T10:30:41.137Z,51.43
2022-08-05T10:32:54.149Z,51.97
2022-08-05T10:34:53.971Z,52.50
2022-08-05T10:37:37.155Z,50.81
2022-08-05T10:39:58.931Z,52.91
2022-08-05T10:42:34.065Z,52.91
2022-08-05T10:45:00.763Z,50.14
2022-08-05T10:47:36.500Z,50.02
2022-08-05T10:50:31.873Z,50.49
2022-08-05T10:53:00.561Z,50.68
2022-08-05T10:55:32.874Z,50.68
2022-08-05T10:58:12.063Z,51.60
2022-08-05T11:00:45.797Z,51.56
2022-08-05T11:03:24.234Z,50.70
2022-08-05T11:05:49.082Z,50.70
2022-08-05T11:08:36.546Z,50.59
2022-08-05T11:11:00.898Z,50.59
2022-08-05T11:13:40.653Z,49.76
2022-08-05T11:16:34.048Z,49.13
2022-08-05T11:20:11.120Z,49.13
2022-08-05T11:22:02.387Z,50.24
2022-08-05T11:24:32.524Z,48.81
2022-08-05T11:27:51.537Z,50.11
2022-08-05T11:30:03.921Z,48.41
2022-08-05T11:32:34.646Z,47.46
2022-08-05T11:35:05.476Z,49.41
2022-08-05T11:38:30.297Z,47.81
2022-08-05T11:40:18.826Z,47.81
2022-08-05T11:42:49.988Z,48.69
2022-08-05T11:45:26.824Z,49.37
2022-08-05T11:47:54.494Z,50.55
2022-08-05T11:50:21.548Z,47.97
2022-08-05T11:52:54.406Z,47.97
2022-08-05T11:55:21.677Z,49.91
2022-08-05T11:58:10.385Z,49.90
2022-08-05T12:00:30.990Z,49.70
2022-08-05T12:03:01.596Z,49.25
2022-08-05T12:05:36.080Z,50.82
2022-08-05T12:08:03.381Z,50.82
2022-08-05T12:10:43.567Z,51.60
2022-08-05T12:13:15.999Z,48.65
2022-08-05T12:15:38.694Z,51.20
2022-08-05T12:18:11.009Z,50.78
2022-08-05T12:20:39.178Z,50.78
2022-08-05T12:23:12.270Z,51.60
2022-08-05T12:25:56.670Z,51.60
2022-08-05T12:28:39.114Z,51.51
2022-08-05T12:31:08.200Z,49.97
2022-08-05T12:33:38.594Z,49.97
2022-08-05T12:36:09.869Z,49.51
2022-08-05T12:38:41.408Z,51.81
2022-08-05T12:41:17.793Z,51.89
2022-08-05T12:43:52.710Z,51.89
2022-08-05T12:46:28.868Z,50.80
2022-08-05T12:49:00.443Z,50.80
2022-08-05T12:52:13.117Z,49.21
2022-08-05T12:54:04.574Z,49.21
2022-08-05T12:56:37.415Z,47.49
2022-08-05T12:59:46.936Z,47.49
2022-08-05T13:02:07.569Z,48.23
2022-08-05T13:04:34.407Z,47.53
2022-08-05T13:07:10.440Z,44.95
2022-08-05T13:09:38.572Z,46.44
2022-08-05T13:12:13.217Z,47.32
2022-08-05T13:14:46.503Z,47.73
2022-08-05T13:17:34.997Z,47.73
2022-08-05T13:20:02.401Z,45.66
2022-08-05T13:22:32.735Z,45.98
2022-08-05T13:25:08.079Z,45.98
2022-08-05T13:27:43.036Z,44.76
2022-08-05T13:30:33.512Z,41.53
2022-08-05T13:32:51.938Z,41.53
2022-08-05T13:35:42.837Z,40.73
2022-08-05T13:37:55.498Z,40.73
2022-08-05T13:40:36.620Z,39.39
2022-08-05T13:42:55.715Z,35.95
2022-08-05T13:45:25.118Z,56.28
2022-08-05T13:48:08.558Z,51.38
2022-08-05T13:50:26.787Z,50.80
2022-08-05T13:52:56.270Z,50.80
2022-08-05T13:55:40.791Z,55.17
2022-08-05T13:57:56.642Z,51.61
2022-08-05T14:00:26.921Z,51.61
2022-08-05T14:02:58.028Z,54.47
2022-08-05T14:05:47.999Z,54.47
2022-08-05T14:08:05.839Z,54.17
2022-08-05T14:10:31.281Z,53.23
2022-08-05T14:13:01.253Z,55.25
2022-08-05T14:16:08.319Z,57.31
2022-08-05T14:18:03.968Z,57.31
2022-08-05T14:20:34.678Z,56.37
2022-08-05T14:23:03.984Z,56.37
2022-08-05T14:25:34.821Z,59.54
2022-08-05T14:28:06.044Z,56.11
2022-08-05T14:30:35.455Z,50.04
2022-08-05T14:33:05.383Z,49.99
2022-08-05T14:35:36.329Z,48.66
2022-08-05T14:38:05.902Z,48.66
2022-08-05T14:40:36.746Z,48.55
2022-08-05T14:43:06.698Z,49.81
2022-08-05T14:45:37.492Z,50.72
2022-08-05T14:48:08.840Z,50.72
2022-08-05T14:50:40.638Z,49.84
2022-08-05T14:53:08.930Z,49.41
2022-08-05T14:55:39.653Z,49.41
2022-08-05T14:58:13.643Z,49.26
2022-08-05T15:00:59.760Z,49.33
2022-08-05T15:03:14.149Z,49.33
2022-08-05T15:06:12.970Z,47.89
2022-08-05T15:08:17.954Z,49.13
2022-08-05T15:10:46.215Z,47.22
2022-08-05T15:13:16.259Z,50.35
2022-08-05T15:15:56.523Z,50.35
2022-08-05T15:20:53.863Z,47.83
2022-08-05T15:23:33.415Z,48.14
2022-08-05T15:26:03.119Z,48.14
2022-08-05T15:28:32.572Z,47.25
2022-08-05T15:31:03.703Z,46.87
2022-08-05T15:34:05.428Z,46.50
2022-08-05T15:36:05.937Z,47.23
2022-08-05T15:38:48.105Z,46.73
2022-08-05T15:41:23.260Z,49.53
2022-08-05T15:43:45.330Z,49.68
2022-08-05T15:46:09.559Z,49.23
2022-08-05T15:48:38.803Z,49.23
2022-08-05T15:51:09.720Z,48.76
2022-08-05T15:53:50.329Z,48.76
2022-08-05T15:56:14.384Z,48.89
2022-08-05T15:58:41.870Z,47.84
2022-08-05T16:01:16.186Z,48.85
2022-08-05T16:03:48.323Z,48.32
2022-08-05T16:06:20.117Z,48.32
2022-08-05T16:08:50.876Z,46.60
2022-08-05T16:11:21.129Z,47.08
2022-08-05T16:13:51.615Z,47.08
2022-08-05T16:16:21.347Z,49.72
2022-08-05T16:18:52.659Z,49.33
2022-08-05T16:21:59.326Z,47.84
2022-08-05T16:23:55.385Z,49.51
2022-08-05T16:26:26.610Z,49.51
2022-08-05T16:28:54.759Z,49.20
2022-08-05T16:31:24.193Z,47.90
2022-08-05T16:33:54.625Z,47.90
2022-08-05T16:36:24.147Z,49.98
2022-08-05T16:38:55.528Z,49.98
2022-08-05T16:42:13.815Z,48.47
2022-08-05T16:43:56.436Z,48.47
2022-08-05T16:46:25.829Z,48.46
2022-08-05T16:48:55.557Z,48.46
2022-08-05T16:51:30.860Z,48.15
2022-08-05T16:54:05.178Z,46.51
2022-08-05T16:56:27.910Z,46.51
2022-08-05T16:58:57.779Z,46.57
2022-08-05T17:01:27.151Z,45.79
2022-08-05T17:03:57.954Z,45.79
2022-08-05T17:06:27.101Z,45.80
2022-08-05T17:08:56.304Z,46.09
2022-08-05T17:11:26.842Z,47.87
2022-08-05T17:14:05.381Z,47.87
2022-08-05T17:16:32.822Z,48.61
2022-08-05T17:18:58.180Z,48.61
2022-08-05T17:21:36.314Z,48.84
2022-08-05T17:24:04.267Z,48.84
2022-08-05T17:26:28.874Z,48.57
2022-08-05T17:28:58.217Z,48.63
2022-08-05T17:31:56.733Z,49.77
2022-08-05T17:33:58.924Z,48.40
2022-08-05T17:36:33.989Z,50.56
2022-08-05T17:39:00.368Z,50.56
2022-08-05T17:42:19.190Z,49.80
2022-08-05T17:44:00.730Z,49.80
2022-08-05T17:46:31.779Z,49.63
2022-08-05T17:49:00.998Z,47.81
2022-08-05T17:51:30.373Z,47.81
2022-08-05T17:54:01.215Z,48.62
2022-08-05T17:56:30.327Z,49.86
2022-08-05T17:59:01.270Z,51.26
2022-08-05T18:01:49.458Z,52.39
2022-08-05T18:04:04.754Z,48.54
2022-08-05T18:06:33.149Z,48.54
2022-08-05T18:09:03.415Z,54.04
2022-08-05T18:11:33.952Z,57.50
2022-08-05T18:14:06.759Z,57.50
2022-08-05T18:16:50.956Z,56.95
2022-08-05T18:19:09.793Z,56.75
2022-08-05T18:22:08.265Z,51.15
2022-08-05T18:24:10.067Z,50.28
2022-08-05T18:26:40.853Z,49.84
2022-08-05T18:29:10.915Z,49.84
2022-08-05T18:31:43.154Z,48.68
2022-08-05T18:34:12.282Z,47.24
2022-08-05T18:36:43.639Z,47.84
2022-08-05T18:39:41.962Z,48.13
2022-08-05T18:41:55.215Z,48.13
2022-08-05T18:44:14.765Z,47.54
2022-08-05T18:46:45.593Z,48.33
2022-08-05T18:49:44.505Z,48.56
2022-08-05T18:52:33.000Z,49.43
2022-08-05T18:54:52.342Z,48.15
2022-08-05T18:57:23.985Z,48.15
2022-08-05T19:00:03.474Z,48.83
2022-08-05T19:02:28.021Z,47.61
2022-08-05T19:05:02.167Z,47.61
2022-08-05T19:07:29.678Z,47.74
2022-08-05T19:10:01.383Z,46.57
2022-08-05T19:12:32.272Z,48.78
2022-08-05T19:15:03.047Z,48.78
2022-08-05T19:17:59.445Z,49.46
2022-08-05T19:20:03.142Z,49.46
2022-08-05T19:22:32.737Z,50.48
2022-08-05T19:25:02.732Z,51.18
2022-08-05T19:27:31.818Z,51.69
2022-08-05T19:30:02.803Z,50.91
2022-08-05T19:32:32.146Z,49.84
2022-08-05T19:35:05.863Z,49.84
2022-08-05T19:37:47.073Z,49.18
2022-08-05T19:40:10.240Z,50.19
2022-08-05T19:42:36.511Z,49.67
2022-08-05T19:45:07.958Z,48.28
2022-08-05T19:47:38.158Z,48.28
2022-08-05T19:50:12.013Z,50.03
2022-08-05T19:52:38.644Z,48.26
2022-08-05T19:56:11.793Z,48.79
2022-08-05T19:57:48.901Z,49.15
2022-08-05T20:00:10.859Z,49.47
2022-08-05T20:02:41.524Z,47.68
2022-08-05T20:05:16.722Z,47.68
2022-08-05T20:07:47.899Z,47.25
2022-08-05T20:10:14.217Z,46.70
2022-08-05T20:12:49.062Z,46.70
2022-08-05T20:15:48.043Z,46.75
2022-08-05T20:17:52.668Z,46.75
2022-08-05T20:20:23.205Z,47.37
2022-08-05T20:22:52.930Z,45.44
2022-08-05T20:25:23.273Z,45.44
2022-08-05T20:27:52.536Z,46.38
2022-08-05T20:30:21.936Z,46.83
2022-08-05T20:32:52.792Z,47.10
2022-08-05T20:35:21.963Z,47.10
2022-08-05T20:38:05.785Z,46.85
2022-08-05T20:40:22.127Z,47.69
2022-08-05T20:42:51.282Z,47.98
2022-08-05T20:45:21.321Z,47.74
2022-08-05T20:47:52.078Z,47.90
2022-08-05T20:50:21.150Z,47.90
2022-08-05T20:52:52.535Z,48.03
2022-08-05T20:55:54.700Z,47.63
2022-08-05T20:57:53.252Z,47.63
2022-08-05T21:00:49.594Z,48.78
2022-08-05T21:02:59.124Z,48.09
2022-08-05T21:05:48.098Z,47.14
2022-08-05T21:08:00.799Z,45.68
2022-08-05T21:10:30.019Z,47.23
2022-08-05T21:13:10.278Z,48.88
2022-08-05T21:15:33.728Z,46.49
2022-08-05T21:18:01.190Z,46.49
2022-08-05T21:20:32.747Z,47.25
2022-08-05T21:23:01.203Z,46.67
2022-08-05T21:25:33.934Z,46.70
2022-08-05T21:28:03.712Z,47.57
2022-08-05T21:30:32.896Z,46.28
2022-08-05T21:33:02.219Z,45.84
2022-08-05T21:35:43.817Z,45.33
2022-08-05T21:38:04.171Z,45.33
2022-08-05T21:40:35.012Z,46.82
2022-08-05T21:43:05.570Z,46.86
2022-08-05T21:45:56.198Z,46.82
2022-08-05T21:48:08.055Z,48.17
2022-08-05T21:50:37.414Z,45.83
2022-08-05T21:53:17.405Z,45.83
2022-08-05T21:56:01.440Z,47.08
2022-08-05T21:58:11.671Z,47.08
2022-08-05T22:00:41.177Z,46.57
2022-08-05T22:03:13.455Z,47.27
2022-08-05T22:05:49.214Z,45.85
2022-08-05T22:08:22.177Z,45.85
2022-08-05T22:10:44.965Z,46.13
2022-08-05T22:14:18.209Z,46.13
2022-08-05T22:16:01.498Z,47.67
2022-08-05T22:18:19.514Z,46.91
2022-08-05T22:20:51.594Z,46.91
2022-08-05T22:24:03.272Z,47.27
2022-08-05T22:26:25.700Z,47.46
2022-08-05T22:28:55.878Z,49.53
2022-08-05T22:31:25.716Z,48.28
2022-08-05T22:34:00.751Z,48.28
2022-08-05T22:36:27.507Z,48.80
2022-08-05T22:38:58.141Z,48.12
2022-08-05T22:42:11.549Z,47.59
2022-08-05T22:43:59.738Z,46.07
2022-08-05T22:46:28.796Z,46.07
2022-08-05T22:48:59.235Z,45.53
2022-08-05T22:52:02.723Z,46.46
2022-08-05T22:53:59.792Z,47.46
2022-08-05T22:56:30.250Z,46.78
2022-08-05T22:59:04.181Z,47.29
2022-08-05T23:02:03.913Z,47.87
2022-08-05T23:04:03.581Z,45.15
2022-08-05T23:06:34.266Z,46.12
2022-08-05T23:09:27.194Z,46.12
2022-08-05T23:11:37.677Z,47.47
2022-08-05T23:14:08.529Z,47.63
2022-08-05T23:16:57.193Z,47.05
2022-08-05T23:19:28.003Z,47.05
2022-08-05T23:21:57.426Z,45.68
2022-08-05T23:24:27.650Z,45.58
2022-08-05T23:26:56.743Z,46.88
2022-08-05T23:29:26.739Z,46.15
2022-08-05T23:31:57.606Z,46.03
2022-08-05T23:34:26.952Z,44.98
2022-08-05T23:36:56.074Z,46.73
2022-08-05T23:39:44.358Z,46.73
2022-08-05T23:41:57.820Z,45.71
2022-08-05T23:44:31.061Z,45.71
2022-08-05T23:46:58.189Z,45.31
2022-08-05T23:49:33.896Z,47.26
2022-08-05T23:52:16.380Z,47.26
2022-08-05T23:54:47.248Z,45.33
2022-08-05T23:57:17.408Z,46.26
